• Join FlightAware (Why Join?)
  • Login
  • US Flag 
10:09AM EDT


 

Airport Tracker/Info


-or-


 

Live Flight TrackerFlight Track Log ✈ CPZ5750 ✈ 07-Mar-2014 ✈ CYYC - KMSP

Flight Track Log - Related Links

Times and Time Zones

All times are in EST time to prevent confusion due to time zone crossing. See the CPZ5750 flight status page for this flight to view local times or setup timezone preferences in your user account.

Time Position Orientation Groundspeed Altitude Reporting Facility
EST Latitude Longitude Course Direction KTS MPH feet Rate Location/Type
04:42PM 51.1000 -114.0333 270° West 10 12 3,500  Level Edmonton Center
04:43PM 51.0833 -114.0333 180° South 120 138 3,500 780 Level Edmonton Center
04:44PM 51.0333 -114.0500 192° South 160 184 5,100 1,500 Climbing Edmonton Center
04:45PM 50.9833 -114.0333 168° South 210 242 6,600 1,560 Climbing Edmonton Center
04:46PM 50.9500 -113.9500 122° Southeast 270 311 8,300 2,220 Climbing Edmonton Center
04:47PM 50.9833 -113.8500 62° Northeast 300 345 11,100 2,220 Climbing Edmonton Center
04:48PM 51.0000 -113.6833 81° East 350 403 12,800 1,860 Climbing Edmonton Center
04:49PM 51.0167 -113.5333 80° East 370 426 14,900 2,100 Climbing Edmonton Center
04:50PM 51.0333 -113.3500 82° East 380 437 17,100 2,100 Climbing Edmonton Center
04:51PM 51.0333 -113.1833 90° East 400 460 19,200 1,980 Climbing Edmonton Center
04:52PM 51.0167 -113.0000 98° East 410 472 21,100 1,800 Climbing Edmonton Center
04:53PM 51.0000 -112.8000 97° East 420 483 22,800 1,620 Climbing Edmonton Center
04:54PM 50.9833 -112.6167 98° East 430 495 24,400 1,380 Climbing Edmonton Center
04:55PM 50.9667 -112.4167 97° East 440 506 25,600 1,200 Climbing Edmonton Center
04:56PM 50.9500 -112.2333 98° East 450 518 26,900 1,200 Climbing Edmonton Center
04:57PM 50.9500 -112.0333 90° East 450 518 28,100 1,140 Climbing Edmonton Center
04:58PM 50.9167 -111.8167 104° East 460 529 29,200 1,140 Climbing Edmonton Center
04:59PM 50.9000 -111.6333 98° East 460 529 30,400 1,080 Climbing Edmonton Center
05:00PM 50.9000 -111.4167 90° East 450 518 31,400 900 Climbing Edmonton Center
05:01PM 50.9000 -111.2333 90° East 450 518 32,300 840 Climbing Edmonton Center
05:02PM 50.8833 -111.0167 97° East 460 529 33,100 660 Climbing Edmonton Center
05:03PM 50.8833 -110.8000 90° East 460 529 33,700 720 Climbing Edmonton Center
05:04PM 50.8667 -110.6000 97° East 460 529 34,600 600 Climbing Edmonton Center
05:05PM 50.8500 -110.3833 97° East 460 529 35,000 180 Climbing Edmonton Center
05:06PM 50.8500 -110.1833 90° East 470 541 35,000  Level Edmonton Center
05:07PM 50.8333 -109.9833 97° East 480 552 35,000  Level Edmonton Center
05:08PM 50.7833 -109.7667 110° East 490 564 35,000  Level Edmonton Center
05:09PM 50.7333 -109.5833 113° Southeast 490 564 35,000  Level Edmonton Center
05:10PM 50.6833 -109.3500 109° East 490 564 35,000  Level Edmonton Center
05:11PM 50.6333 -109.1667 113° Southeast 490 564 35,000  Level Edmonton Center
05:12PM 50.5833 -108.9500 110° East 490 564 35,000  Level Edmonton Center
05:13PM 50.5333 -108.7500 111° Southeast 490 564 35,000  Level Edmonton Center
05:14PM 50.4833 -108.5667 113° Southeast 490 564 35,000  Level Edmonton Center
05:15PM 50.4333 -108.3833 113° Southeast 490 564 35,000  Level Edmonton Center
05:16PM 50.3667 -108.1833 118° Southeast 490 564 35,000  Level Edmonton Center
05:17PM 50.3167 -107.9667 110° East 480 552 35,000  Level Edmonton Center
05:18PM 50.2500 -107.7833 120° Southeast 490 564 35,000  Level Edmonton Center
05:19PM 50.2167 -107.5667 103° East 480 552 35,000  Level Edmonton Center
05:20PM 50.1667 -107.3833 113° Southeast 490 564 35,000  Level Edmonton Center
05:21PM 50.1000 -107.2000 119° Southeast 490 564 35,000  Level Edmonton Center
05:22PM 50.0500 -107.0167 113° Southeast 490 564 35,000  Level Edmonton Center
05:23PM 49.9833 -106.8333 119° Southeast 480 552 35,000  Level Edmonton Center
05:24PM 49.9500 -106.6167 103° East 480 552 35,000  Level Edmonton Center
05:25PM 49.8833 -106.4333 119° Southeast 480 552 35,000  Level Edmonton Center
05:26PM 49.8333 -106.2167 110° East 490 564 35,000  Level Edmonton Center
05:27PM 49.7667 -106.0333 119° Southeast 490 564 35,000  Level Edmonton Center
05:28PM 49.7167 -105.8500 113° Southeast 490 564 35,000  Level Edmonton Center
05:29PM 49.6500 -105.6667 119° Southeast 490 564 35,000  Level Edmonton Center
05:30PM 49.6000 -105.4667 111° Southeast 490 564 35,000  Level Edmonton Center
05:32PM 49.5333 -105.2167 112° Southeast 500 575 35,000  Level Winnipeg Center
05:33PM 49.4667 -105.0667 124° Southeast 500 575 35,000  Level Winnipeg Center
05:34PM 49.4167 -104.8500 109° East 500 575 35,000  Level Winnipeg Center
05:35PM 49.3667 -104.6500 111° Southeast 490 564 35,000  Level Winnipeg Center
05:36PM 49.3000 -104.4667 119° Southeast 490 564 35,000  Level Winnipeg Center
05:37PM 49.2500 -104.2667 111° Southeast 490 564 35,000  Level Winnipeg Center
05:38PM 49.1833 -104.1167 124° Southeast 490 564 35,000  Level Winnipeg Center
05:39PM 49.1167 -103.9000 115° Southeast 500 575 35,000  Level Winnipeg Center
05:40PM 49.0667 -103.7167 113° Southeast 500 575 35,000  Level Winnipeg Center
05:41PM 49.0000 -103.5167 117° Southeast 500 575 35,000  Level Winnipeg Center
05:42PM 48.9500 -103.3333 112° Southeast 490 564 35,000  Level Winnipeg Center
05:43PM 48.8667 -103.1500 125° Southeast 490 564 35,000  Level Winnipeg Center
05:44PM 48.8472 -102.9950 101° East 494 568 35,000  Level Salt Lake Center
05:45PM 48.7739 -102.7767 117° Southeast 489 563 35,000  Level Salt Lake Center
05:46PM 48.7119 -102.5919 117° Southeast 489 563 35,000  Level Salt Lake Center
05:47PM 48.6497 -102.4081 117° Southeast 490 564 35,000  Level Salt Lake Center
05:48PM 48.5869 -102.2236 117° Southeast 491 565 35,000  Level Salt Lake Center
05:49PM 48.5233 -102.0381 117° Southeast 493 567 35,000  Level Salt Lake Center
05:50PM 48.4333 -101.8500 126° Southeast 500 575 35,000  Level Winnipeg Center
05:51PM 48.3833 -101.6667 112° Southeast 500 575 35,000  Level Winnipeg Center
05:52PM 48.3167 -101.5000 121° Southeast 500 575 35,000  Level Winnipeg Center
05:53PM 48.2333 -101.3167 124° Southeast 490 564 35,000  Level Winnipeg Center
05:53PM 48.2378 -101.2303 86° East 496 571 35,000  Level Minneapolis Center
05:54PM 48.1836 -101.0544 115° Southeast 496 571 35,000  Level Minneapolis Center
05:55PM 48.1258 -100.8692 115° Southeast 496 571 35,000  Level Minneapolis Center
05:56PM 48.0542 -100.6483 116° Southeast 495 570 35,000  Level Minneapolis Center
05:57PM 47.9953 -100.4661 116° Southeast 493 567 35,000  Level Minneapolis Center
05:58PM 47.9383 -100.2839 115° Southeast 492 566 35,000  Level Minneapolis Center
05:59PM 47.8797 -100.1031 116° Southeast 489 563 35,000  Level Minneapolis Center
06:00PM 47.8231 -99.9236 115° Southeast 487 560 35,000  Level Minneapolis Center
06:01PM 47.7661 -99.7408 115° Southeast 487 560 35,000  Level Minneapolis Center
06:02PM 47.7050 -99.5631 117° Southeast 487 560 35,000  Level Minneapolis Center
06:03PM 47.6342 -99.3506 116° Southeast 486 559 35,000  Level Minneapolis Center
06:05PM 47.5750 -99.1756 117° Southeast 480 552 35,000  Level Minneapolis Center
06:06PM 47.5164 -99.0017 116° Southeast 479 551 35,000  Level Minneapolis Center
06:07PM 47.4583 -98.8294 116° Southeast 476 548 35,000  Level Minneapolis Center
06:08PM 47.3992 -98.6603 117° Southeast 473 544 35,000  Level Minneapolis Center
06:09PM 47.3411 -98.4903 117° Southeast 469 540 35,000  Level Minneapolis Center
06:10PM 47.2700 -98.2878 117° Southeast 470 541 35,000  Level Minneapolis Center
06:11PM 47.2108 -98.1169 117° Southeast 470 541 35,000  Level Minneapolis Center
06:12PM 47.1492 -97.9464 118° Southeast 478 550 35,000  Level Minneapolis Center
06:13PM 47.0889 -97.7753 117° Southeast 478 550 35,000  Level Minneapolis Center
06:14PM 47.0275 -97.6053 118° Southeast 478 550 35,000  Level Minneapolis Center
06:15PM 46.9667 -97.4328 117° Southeast 478 550 35,000  Level Minneapolis Center
06:16PM 46.8894 -97.2244 118° Southeast 484 557 35,000  Level Minneapolis Center
06:17PM 46.8258 -97.0511 118° Southeast 486 559 35,000  Level Minneapolis Center
06:18PM 46.7622 -96.8786 118° Southeast 486 559 35,000  Level Minneapolis Center
06:19PM 46.7078 -96.7008 114° Southeast 484 557 35,000  Level Minneapolis Center
06:20PM 46.6536 -96.5214 114° Southeast 484 557 35,000  Level Minneapolis Center
06:21PM 46.5994 -96.3414 114° Southeast 487 560 35,000  Level Minneapolis Center
06:22PM 46.5439 -96.1631 114° Southeast 487 560 35,000  Level Minneapolis Center
06:23PM 46.4886 -95.9800 114° Southeast 493 567 35,000  Level Minneapolis Center
06:24PM 46.4236 -95.7725 114° Southeast 493 567 35,000  Level Minneapolis Center
06:25PM 46.3672 -95.5892 114° Southeast 496 571 35,000 -600 Level Minneapolis Center
06:26PM 46.3039 -95.3897 115° Southeast 496 571 33,800 -1,320 Descending Minneapolis Center
06:27PM 46.2469 -95.2100 115° Southeast 496 571 32,400 -1,440 Descending Minneapolis Center
06:28PM 46.1847 -95.0228 116° Southeast 495 570 30,900 -1,440 Descending Minneapolis Center
06:29PM 46.1122 -94.8600 123° Southeast 486 559 29,500 -1,560 Descending Minneapolis Center
06:30PM 46.0383 -94.6942 123° Southeast 488 562 27,800 -1,680 Descending Minneapolis Center
06:31PM 45.9642 -94.5253 122° Southeast 495 570 26,100 -1,680 Descending Minneapolis Center
06:32PM 45.8914 -94.3639 123° Southeast 490 564 24,400 -1,680 Descending Minneapolis Center
06:34PM 45.7508 -94.0525 113° Southeast 462 532 21,100 -1,740 Descending Minneapolis Center
06:35PM 45.6681 -93.8708 123° Southeast 458 527 19,200 -1,680 Descending Minneapolis Center
06:36PM 45.6033 -93.7283 123° Southeast 434 499 17,700 -1,440 Descending Minneapolis Center
06:37PM 45.5369 -93.5956 125° Southeast 417 480 16,300 -1,380 Descending Minneapolis Center
06:38PM 45.4381 -93.5289 155° Southeast 393 452 14,900 -1,380 Descending Minneapolis Center
06:39PM 45.3364 -93.4756 160° South 392 451 13,500 -1,320 Descending Minneapolis Center
06:40PM 45.2375 -93.4225 159° South 381 438 12,200 -1,320 Descending Minneapolis Center
06:41PM 45.1400 -93.3703 159° South 376 433 10,900 -1,200 Descending Minneapolis Center
06:43PM 45.0383 -93.3156 159° South 321 369 9,800 -1,080 Descending Minneapolis Center
06:44PM 44.9825 -93.2275 132° Southeast 309 356 8,700 -1,020 Descending Minneapolis Center
06:45PM 44.9450 -93.1369 120° Southeast 263 303 7,800 -1,320 Descending Minneapolis Center
06:46PM 44.9097 -93.0608 123° Southeast 235 270 6,100 -1,620 Descending Minneapolis Center
06:47PM 44.8758 -92.9933 125° Southeast 212 244 4,600 -1,020 Descending Minneapolis Center
06:48PM 44.8525 -92.9258 116° Southeast 194 223 4,000 -300 Descending Minneapolis Center
06:49PM 44.8167 -92.8892 144° Southeast 194 223 4,000  Level Minneapolis Center
06:50PM 44.7906 -92.9458 237° Southwest 191 220 4,000  Level Minneapolis Center
06:51PM 44.8011 -93.0083 283° West 177 204 4,000 -540 Level Minneapolis Center
06:52PM 44.8292 -93.0744 301° West 169 194 2,900 -900 Descending Minneapolis Center
06:53PM 44.8486 -93.1192 302° West 138 159 2,200 -780 Descending Minneapolis Center
06:54PM 44.8678 -93.1631 302° West 134 154 1,400 -840 Descending Minneapolis Center